createdAt,value
2023-02-23T00:01:55.918Z,66.20
2023-02-23T00:04:40.719Z,66.54
2023-02-23T00:07:25.585Z,66.64
2023-02-23T00:10:10.429Z,66.41
2023-02-23T00:12:55.314Z,66.05
2023-02-23T00:15:40.002Z,66.00
2023-02-23T00:18:24.733Z,66.78
2023-02-23T00:21:09.524Z,66.80
2023-02-23T00:23:54.336Z,67.12
2023-02-23T00:26:39.173Z,67.37
2023-02-23T00:29:24.425Z,66.82
2023-02-23T00:32:09.415Z,66.19
2023-02-23T00:34:54.606Z,67.08
2023-02-23T00:37:39.426Z,67.10
2023-02-23T00:40:24.252Z,67.27
2023-02-23T00:43:09.018Z,66.84
2023-02-23T00:45:53.771Z,67.71
2023-02-23T00:48:39.020Z,68.47
2023-02-23T00:51:23.787Z,67.06
2023-02-23T00:54:08.540Z,67.67
2023-02-23T00:56:53.398Z,67.64
2023-02-23T00:59:38.251Z,68.24
2023-02-23T01:02:23.051Z,67.87
2023-02-23T01:05:07.782Z,67.58
2023-02-23T01:07:52.558Z,67.66
2023-02-23T01:10:37.396Z,67.65
2023-02-23T01:13:22.052Z,67.99
2023-02-23T01:16:06.711Z,67.59
2023-02-23T01:18:51.597Z,68.26
2023-02-23T01:21:36.223Z,68.22
2023-02-23T01:24:20.996Z,68.14
2023-02-23T01:27:05.680Z,68.21
2023-02-23T01:29:50.444Z,68.49
2023-02-23T01:32:35.300Z,68.53
2023-02-23T01:35:20.054Z,67.75
2023-02-23T01:38:04.901Z,67.91
2023-02-23T01:40:49.601Z,67.79
2023-02-23T01:43:34.803Z,67.61
2023-02-23T01:46:19.454Z,67.73
2023-02-23T01:49:04.067Z,68.06
2023-02-23T01:51:48.738Z,67.77
2023-02-23T01:54:33.526Z,67.76
2023-02-23T01:57:18.286Z,67.24
2023-02-23T02:00:03.137Z,67.60
2023-02-23T02:02:47.952Z,67.60
2023-02-23T02:05:32.857Z,67.18
2023-02-23T02:08:17.516Z,68.35
2023-02-23T02:11:02.086Z,67.39
2023-02-23T02:13:46.905Z,66.96
2023-02-23T02:16:31.568Z,66.87
2023-02-23T02:19:16.217Z,67.00
2023-02-23T02:22:00.869Z,67.15
2023-02-23T02:24:45.669Z,67.77
2023-02-23T02:27:30.400Z,67.39
2023-02-23T02:30:15.326Z,67.28
2023-02-23T02:33:00.234Z,67.18
2023-02-23T02:35:45.070Z,66.87
2023-02-23T02:38:29.876Z,66.68
2023-02-23T02:41:14.480Z,67.14
2023-02-23T02:43:59.205Z,67.44
2023-02-23T02:46:44.047Z,67.31
2023-02-23T02:49:28.866Z,67.74
2023-02-23T02:52:13.606Z,68.60
2023-02-23T02:54:58.304Z,68.82
2023-02-23T02:57:42.976Z,68.50
2023-02-23T03:00:27.762Z,68.22
2023-02-23T03:03:12.515Z,68.81
2023-02-23T03:05:57.165Z,68.65
2023-02-23T03:08:42.008Z,68.57
2023-02-23T03:11:26.800Z,68.72
2023-02-23T03:14:11.569Z,68.28
2023-02-23T03:16:56.244Z,67.64
2023-02-23T03:19:41.130Z,68.27
2023-02-23T03:22:25.835Z,68.37
2023-02-23T03:25:10.553Z,67.20
2023-02-23T03:27:55.268Z,67.42
2023-02-23T03:30:40.083Z,67.29
2023-02-23T03:33:24.753Z,68.19
2023-02-23T03:36:09.543Z,67.76
2023-02-23T03:38:54.384Z,67.29
2023-02-23T03:41:39.023Z,66.79
2023-02-23T03:44:23.836Z,67.35
2023-02-23T03:47:08.443Z,66.82
2023-02-23T03:49:53.154Z,67.04
2023-02-23T03:52:38.105Z,67.74
2023-02-23T03:55:23.208Z,67.14
2023-02-23T03:58:07.887Z,66.83
2023-02-23T04:00:52.555Z,66.56
2023-02-23T04:03:37.322Z,67.71
2023-02-23T04:06:22.629Z,66.97
2023-02-23T04:09:07.478Z,67.11
2023-02-23T04:11:52.206Z,67.73
2023-02-23T04:14:37.069Z,66.95
2023-02-23T04:17:21.881Z,67.16
2023-02-23T04:20:06.679Z,66.79
2023-02-23T04:22:51.435Z,67.12
2023-02-23T04:25:36.287Z,67.46
2023-02-23T04:28:21.013Z,67.79
2023-02-23T04:31:05.891Z,66.94
2023-02-23T04:33:50.541Z,67.04
2023-02-23T04:36:35.415Z,66.67
2023-02-23T04:39:20.150Z,66.50
2023-02-23T04:42:04.841Z,66.38
2023-02-23T04:44:49.672Z,66.59
2023-02-23T04:47:34.341Z,66.67
2023-02-23T04:50:19.211Z,67.00
2023-02-23T04:53:03.756Z,67.34
2023-02-23T04:55:48.430Z,67.65
2023-02-23T04:58:33.134Z,67.11
2023-02-23T05:01:18.322Z,66.60
2023-02-23T05:04:03.282Z,66.71
2023-02-23T05:06:48.094Z,66.28
2023-02-23T05:09:32.883Z,66.27
2023-02-23T05:12:17.502Z,66.00
2023-02-23T05:15:02.272Z,66.04
2023-02-23T05:17:47.142Z,66.42
2023-02-23T05:20:31.943Z,66.44
2023-02-23T05:23:16.773Z,66.48
2023-02-23T05:26:01.756Z,66.05
2023-02-23T05:28:46.754Z,66.03
2023-02-23T05:31:31.528Z,66.95
2023-02-23T05:34:16.713Z,67.33
2023-02-23T05:37:01.397Z,67.74
2023-02-23T05:39:46.159Z,67.05
2023-02-23T05:42:30.808Z,67.16
2023-02-23T05:45:15.589Z,67.16
2023-02-23T05:48:00.333Z,66.36
2023-02-23T05:50:44.997Z,66.29
2023-02-23T05:53:29.694Z,66.34
2023-02-23T05:56:14.599Z,65.56
2023-02-23T05:58:59.287Z,65.05
2023-02-23T06:01:44.092Z,65.28
2023-02-23T06:04:28.956Z,66.41
2023-02-23T06:07:13.664Z,66.09
2023-02-23T06:09:58.519Z,66.82
2023-02-23T06:12:43.317Z,66.80
2023-02-23T06:15:29.894Z,66.74
2023-02-23T06:18:14.904Z,66.66
2023-02-23T06:20:59.669Z,67.26
2023-02-23T06:23:44.430Z,66.68
2023-02-23T06:26:29.089Z,66.23
2023-02-23T06:29:13.887Z,66.51
2023-02-23T06:32:00.738Z,66.89
2023-02-23T06:34:45.797Z,67.34
2023-02-23T06:37:30.421Z,66.17
2023-02-23T06:40:15.231Z,65.86
2023-02-23T06:43:00.126Z,66.17
2023-02-23T06:45:44.841Z,66.37
2023-02-23T06:48:29.722Z,66.94
2023-02-23T06:51:14.415Z,66.74
2023-02-23T06:53:59.214Z,66.34
2023-02-23T06:56:44.093Z,65.54
2023-02-23T06:59:29.236Z,65.89
2023-02-23T07:02:14.029Z,65.90
2023-02-23T07:04:58.858Z,65.71
2023-02-23T07:07:43.706Z,66.03
2023-02-23T07:10:28.545Z,65.61
2023-02-23T07:13:13.469Z,65.58
2023-02-23T07:15:58.203Z,65.95
2023-02-23T07:18:43.211Z,65.01
2023-02-23T07:21:27.782Z,65.47
2023-02-23T07:24:12.588Z,65.56
2023-02-23T07:26:57.264Z,65.44
2023-02-23T07:29:42.113Z,64.45
2023-02-23T07:32:26.960Z,63.30
2023-02-23T07:35:12.156Z,62.58
2023-02-23T07:37:56.972Z,58.44
2023-02-23T07:40:41.614Z,56.88
2023-02-23T07:43:26.535Z,54.86
2023-02-23T07:46:11.120Z,57.24
2023-02-23T07:48:55.894Z,57.85
2023-02-23T07:51:40.591Z,58.56
2023-02-23T07:54:25.275Z,60.83
2023-02-23T07:57:09.939Z,62.39
2023-02-23T07:59:54.777Z,61.55
2023-02-23T08:02:39.480Z,61.03
2023-02-23T08:05:26.434Z,60.11
2023-02-23T08:08:11.611Z,59.94
2023-02-23T08:10:56.389Z,60.11
2023-02-23T08:13:41.322Z,59.79
2023-02-23T08:16:25.875Z,60.34
2023-02-23T08:19:10.819Z,58.99
2023-02-23T08:21:55.532Z,61.14
2023-02-23T08:24:40.335Z,60.13
2023-02-23T08:27:25.111Z,59.22
2023-02-23T08:30:09.850Z,59.19
2023-02-23T08:32:54.550Z,57.37
2023-02-23T08:35:39.372Z,56.03
2023-02-23T08:38:24.139Z,56.35
2023-02-23T08:41:08.839Z,55.91
2023-02-23T08:43:53.572Z,55.74
2023-02-23T08:46:38.286Z,55.54
2023-02-23T08:49:23.084Z,52.89
2023-02-23T08:52:07.977Z,53.50
2023-02-23T08:54:52.715Z,53.86
2023-02-23T08:57:37.389Z,55.30
2023-02-23T09:00:22.245Z,55.28
2023-02-23T09:03:07.146Z,55.54
2023-02-23T09:05:51.694Z,56.66
2023-02-23T09:08:36.558Z,56.52
2023-02-23T09:11:21.564Z,57.90
2023-02-23T09:14:06.610Z,61.43
2023-02-23T09:16:51.232Z,61.20
2023-02-23T09:19:36.016Z,59.21
2023-02-23T09:22:20.791Z,58.70
2023-02-23T09:25:05.597Z,59.15
2023-02-23T09:27:50.427Z,58.49
2023-02-23T09:30:35.071Z,55.20
2023-02-23T09:33:19.973Z,56.21
2023-02-23T09:36:04.663Z,58.41
2023-02-23T09:38:52.522Z,57.38
2023-02-23T09:41:37.219Z,55.56
2023-02-23T09:44:21.950Z,57.83
2023-02-23T09:47:06.680Z,56.85
2023-02-23T09:49:51.569Z,55.70
2023-02-23T09:52:36.962Z,54.78
2023-02-23T09:55:21.968Z,55.49
2023-02-23T09:58:06.830Z,55.55
2023-02-23T10:00:51.444Z,55.53
2023-02-23T10:03:36.189Z,54.38
2023-02-23T10:06:20.984Z,54.35
2023-02-23T10:09:05.765Z,56.93
2023-02-23T10:11:50.563Z,57.41
2023-02-23T10:14:35.301Z,55.83
2023-02-23T10:17:20.180Z,54.28
2023-02-23T10:20:04.915Z,56.88
2023-02-23T10:22:49.945Z,55.36
2023-02-23T10:25:34.779Z,53.80
2023-02-23T10:28:19.618Z,55.43
2023-02-23T10:31:04.506Z,54.13
2023-02-23T10:33:49.733Z,53.20
2023-02-23T10:36:34.342Z,54.57
2023-02-23T10:39:19.054Z,53.58
2023-02-23T10:42:03.668Z,52.39
2023-02-23T10:44:48.465Z,51.13
2023-02-23T10:47:33.294Z,53.73
2023-02-23T10:50:17.999Z,52.59
2023-02-23T10:53:02.913Z,52.95
2023-02-23T10:55:47.641Z,53.02
2023-02-23T10:58:32.523Z,52.24
2023-02-23T11:01:17.133Z,51.52
2023-02-23T11:04:06.221Z,51.60
2023-02-23T11:06:51.210Z,53.24
2023-02-23T11:09:51.085Z,56.00
2023-02-23T11:12:35.950Z,52.30
2023-02-23T11:15:20.596Z,53.25
2023-02-23T11:18:06.058Z,52.33
2023-02-23T11:20:50.831Z,53.17
2023-02-23T11:23:36.076Z,51.91
2023-02-23T11:26:20.835Z,52.84
2023-02-23T11:29:05.503Z,53.13
2023-02-23T11:31:50.404Z,53.28
2023-02-23T11:34:35.477Z,53.45
2023-02-23T11:37:20.342Z,53.68
2023-02-23T11:40:05.161Z,52.88
2023-02-23T11:42:49.907Z,53.40
2023-02-23T11:45:34.693Z,52.27
2023-02-23T11:48:19.357Z,51.23
2023-02-23T11:51:04.110Z,49.24
2023-02-23T11:53:48.961Z,49.42
2023-02-23T11:56:33.711Z,47.96
2023-02-23T11:59:18.450Z,50.61
2023-02-23T12:02:03.229Z,48.27
2023-02-23T12:04:47.936Z,49.36
2023-02-23T12:07:32.774Z,48.00
2023-02-23T12:10:17.580Z,45.48
2023-02-23T12:13:02.285Z,45.40
2023-02-23T12:15:47.130Z,44.68
2023-02-23T12:18:32.025Z,46.13
2023-02-23T12:21:16.818Z,44.31
2023-02-23T12:24:01.795Z,44.77
2023-02-23T12:26:46.757Z,45.92
2023-02-23T12:29:31.493Z,44.73
2023-02-23T12:32:16.253Z,46.41
2023-02-23T12:35:01.509Z,45.53
2023-02-23T12:37:46.353Z,47.14
2023-02-23T12:40:30.934Z,46.50
2023-02-23T12:43:15.936Z,47.18
2023-02-23T12:46:01.129Z,47.74
2023-02-23T12:48:45.906Z,46.64
2023-02-23T12:51:30.752Z,46.69
2023-02-23T12:54:15.499Z,46.86
2023-02-23T12:57:00.520Z,46.43
2023-02-23T12:59:45.205Z,45.89
2023-02-23T13:02:30.183Z,46.20
2023-02-23T13:05:15.434Z,44.21
2023-02-23T13:08:12.544Z,44.43
2023-02-23T13:10:58.498Z,44.82
2023-02-23T13:13:43.244Z,45.57
2023-02-23T13:16:27.920Z,44.53
2023-02-23T13:19:12.818Z,44.77
2023-02-23T13:21:57.720Z,45.32
2023-02-23T13:24:42.553Z,44.42
2023-02-23T13:27:27.943Z,42.68
2023-02-23T13:30:12.814Z,42.65
2023-02-23T13:32:58.000Z,44.46
2023-02-23T13:35:42.611Z,42.75
2023-02-23T13:38:27.601Z,42.72
2023-02-23T13:41:12.218Z,42.72
2023-02-23T13:43:57.052Z,42.63
2023-02-23T13:46:42.267Z,42.86
2023-02-23T13:49:27.106Z,42.65
2023-02-23T13:52:12.011Z,42.60
2023-02-23T13:54:56.775Z,41.44
2023-02-23T13:57:41.488Z,41.90
2023-02-23T14:00:26.301Z,41.81
2023-02-23T14:03:11.168Z,41.91
2023-02-23T14:05:55.723Z,41.87
2023-02-23T14:08:40.577Z,42.06
2023-02-23T14:11:25.238Z,42.96
2023-02-23T14:14:10.062Z,43.30
2023-02-23T14:16:54.743Z,43.46
2023-02-23T14:19:39.418Z,42.44
2023-02-23T14:22:24.381Z,43.21
2023-02-23T14:25:09.186Z,43.13
2023-02-23T14:27:54.040Z,42.25
2023-02-23T14:30:38.772Z,43.36
2023-02-23T14:33:23.407Z,42.96
2023-02-23T14:36:08.081Z,43.99
2023-02-23T14:38:52.840Z,42.81
2023-02-23T14:41:37.398Z,42.76
2023-02-23T14:44:31.115Z,42.40
2023-02-23T14:47:15.946Z,41.60
2023-02-23T14:50:00.806Z,42.64
2023-02-23T14:52:45.627Z,42.42
2023-02-23T14:55:30.411Z,42.28
2023-02-23T14:58:15.136Z,41.27
2023-02-23T15:00:59.956Z,41.05
2023-02-23T15:03:44.720Z,41.15
2023-02-23T15:06:29.530Z,41.61
2023-02-23T15:09:14.138Z,41.67
2023-02-23T15:11:58.958Z,41.42
2023-02-23T15:14:43.997Z,41.23
2023-02-23T15:17:28.761Z,40.84
2023-02-23T15:20:16.540Z,40.82
2023-02-23T15:23:01.940Z,40.86
2023-02-23T15:25:47.248Z,41.50
2023-02-23T15:28:32.094Z,41.39
2023-02-23T15:31:17.200Z,41.66
2023-02-23T15:34:02.469Z,41.19
2023-02-23T15:36:47.185Z,40.86
2023-02-23T15:39:31.982Z,41.62
2023-02-23T15:42:16.795Z,41.51
2023-02-23T15:45:01.594Z,41.96
2023-02-23T15:47:46.276Z,41.75
2023-02-23T15:50:36.562Z,42.86
2023-02-23T15:53:21.809Z,42.83
2023-02-23T15:56:06.625Z,43.34
2023-02-23T15:58:57.000Z,44.42
2023-02-23T16:01:42.249Z,45.54
2023-02-23T16:04:27.068Z,46.31
2023-02-23T16:07:11.890Z,46.38
2023-02-23T16:09:56.824Z,46.66
2023-02-23T16:12:41.453Z,47.47
2023-02-23T16:15:26.288Z,47.64
2023-02-23T16:18:10.990Z,48.15
2023-02-23T16:20:55.776Z,48.83
2023-02-23T16:23:40.548Z,48.55
2023-02-23T16:26:25.255Z,49.06
2023-02-23T16:29:09.991Z,49.82
2023-02-23T16:31:54.913Z,49.40
2023-02-23T16:34:40.074Z,49.12
2023-02-23T16:37:24.797Z,46.34
2023-02-23T16:40:10.153Z,45.72
2023-02-23T16:42:54.968Z,45.11
2023-02-23T16:45:39.863Z,44.03
2023-02-23T16:48:24.477Z,44.26
2023-02-23T16:51:09.288Z,44.01
2023-02-23T16:53:54.014Z,45.58
2023-02-23T16:56:38.754Z,45.77
2023-02-23T16:59:23.581Z,44.72
2023-02-23T17:02:08.305Z,45.15
2023-02-23T17:04:53.119Z,45.10
2023-02-23T17:07:38.273Z,45.05
2023-02-23T17:10:23.080Z,44.22
2023-02-23T17:13:07.892Z,44.47
2023-02-23T17:15:52.717Z,43.85
2023-02-23T17:18:37.915Z,43.57
2023-02-23T17:21:23.477Z,43.90
2023-02-23T17:24:08.702Z,43.76
2023-02-23T17:26:53.481Z,43.68
2023-02-23T17:29:38.296Z,43.03
2023-02-23T17:32:23.108Z,43.50
2023-02-23T17:35:08.364Z,44.33
2023-02-23T17:37:53.077Z,44.30
2023-02-23T17:40:37.936Z,44.20
2023-02-23T17:43:24.090Z,45.68
2023-02-23T17:46:09.459Z,45.85
2023-02-23T17:48:56.192Z,45.62
2023-02-23T17:51:41.098Z,45.55
2023-02-23T17:54:26.361Z,45.89
2023-02-23T17:57:11.165Z,45.88
2023-02-23T17:59:55.878Z,46.21
2023-02-23T18:02:40.660Z,46.14
2023-02-23T18:05:25.457Z,46.61
2023-02-23T18:08:10.276Z,47.42
2023-02-23T18:10:55.089Z,47.46
2023-02-23T18:13:39.970Z,47.46
2023-02-23T18:16:24.896Z,47.03
2023-02-23T18:19:10.143Z,47.24
2023-02-23T18:21:54.960Z,46.82
2023-02-23T18:24:39.761Z,46.67
2023-02-23T18:27:24.442Z,46.02
2023-02-23T18:30:09.327Z,46.69
2023-02-23T18:32:54.171Z,47.59
2023-02-23T18:35:39.289Z,47.51
2023-02-23T18:38:24.176Z,46.97
2023-02-23T18:41:08.977Z,47.85
2023-02-23T18:43:53.666Z,47.34
2023-02-23T18:46:38.472Z,46.88
2023-02-23T18:49:23.710Z,47.49
2023-02-23T18:52:08.513Z,47.73
2023-02-23T18:54:53.379Z,48.94
2023-02-23T18:57:38.175Z,48.20
2023-02-23T19:00:23.029Z,48.07
2023-02-23T19:03:07.805Z,47.52
2023-02-23T19:05:52.518Z,47.15
2023-02-23T19:08:37.320Z,47.83
2023-02-23T19:11:22.375Z,47.62
2023-02-23T19:14:07.647Z,47.74
2023-02-23T19:16:52.332Z,47.81
2023-02-23T19:19:37.046Z,47.32
2023-02-23T19:22:21.763Z,46.52
2023-02-23T19:25:06.472Z,47.29
2023-02-23T19:27:51.252Z,47.94
2023-02-23T19:30:35.947Z,48.34
2023-02-23T19:33:20.843Z,48.19
2023-02-23T19:36:05.850Z,49.18
2023-02-23T19:38:50.742Z,49.32
2023-02-23T19:41:35.518Z,50.40
2023-02-23T19:44:20.259Z,50.47
2023-02-23T19:47:05.077Z,49.94
2023-02-23T19:49:49.844Z,49.74
2023-02-23T19:52:34.541Z,49.80
2023-02-23T19:55:19.379Z,49.95
2023-02-23T19:58:04.070Z,49.00
2023-02-23T20:00:48.849Z,49.62
2023-02-23T20:03:33.727Z,47.42
2023-02-23T20:06:18.407Z,47.51
2023-02-23T20:09:03.138Z,47.80
2023-02-23T20:11:47.794Z,49.31
2023-02-23T20:14:32.559Z,50.11
2023-02-23T20:17:17.353Z,50.12
2023-02-23T20:20:02.238Z,50.36
2023-02-23T20:22:46.981Z,49.81
2023-02-23T20:25:31.725Z,51.50
2023-02-23T20:28:16.463Z,51.20
2023-02-23T20:31:01.423Z,50.42
2023-02-23T20:33:46.122Z,51.24
2023-02-23T20:36:30.961Z,50.60
2023-02-23T20:39:15.697Z,50.37
2023-02-23T20:42:00.438Z,50.97
2023-02-23T20:44:45.558Z,50.60
2023-02-23T20:47:30.576Z,50.70
2023-02-23T20:50:15.372Z,51.49
2023-02-23T20:53:00.126Z,51.81
2023-02-23T20:55:44.790Z,51.86
2023-02-23T20:58:29.566Z,51.30
2023-02-23T21:01:14.348Z,51.89
2023-02-23T21:03:59.284Z,51.85
2023-02-23T21:06:43.943Z,51.12
2023-02-23T21:09:28.753Z,50.84
2023-02-23T21:12:13.381Z,51.20
2023-02-23T21:14:58.282Z,50.94
2023-02-23T21:17:43.207Z,52.45
2023-02-23T21:20:28.089Z,52.17
2023-02-23T21:23:12.781Z,52.18
2023-02-23T21:25:57.553Z,51.95
2023-02-23T21:28:42.487Z,52.08
2023-02-23T21:31:27.263Z,51.50
2023-02-23T21:34:12.598Z,51.41
2023-02-23T21:36:57.347Z,51.55
2023-02-23T21:39:42.127Z,51.98
2023-02-23T21:42:26.911Z,51.95
2023-02-23T21:45:11.669Z,52.12
2023-02-23T21:47:56.322Z,52.59
2023-02-23T21:50:41.191Z,52.51
2023-02-23T21:53:25.929Z,52.10
2023-02-23T21:56:10.616Z,51.96
2023-02-23T21:58:55.377Z,52.20
2023-02-23T22:01:39.995Z,52.79
2023-02-23T22:04:24.768Z,52.61
2023-02-23T22:07:09.483Z,52.77
2023-02-23T22:09:54.300Z,52.42
2023-02-23T22:12:38.998Z,52.47
2023-02-23T22:15:23.720Z,51.50
2023-02-23T22:18:08.410Z,51.38
2023-02-23T22:20:53.302Z,52.02
2023-02-23T22:23:37.945Z,51.41
2023-02-23T22:26:22.666Z,51.22
2023-02-23T22:29:07.524Z,51.18
2023-02-23T22:31:52.361Z,50.99
2023-02-23T22:34:37.671Z,50.19
2023-02-23T22:37:22.339Z,50.77
2023-02-23T22:40:07.164Z,50.80
2023-02-23T22:42:51.884Z,50.64
2023-02-23T22:45:36.810Z,50.72
2023-02-23T22:48:21.668Z,50.77
2023-02-23T22:51:06.353Z,51.25
2023-02-23T22:53:51.307Z,50.17
2023-02-23T22:56:35.957Z,49.58
2023-02-23T22:59:20.862Z,50.15
2023-02-23T23:02:05.618Z,50.32
2023-02-23T23:04:50.308Z,50.36
2023-02-23T23:07:34.870Z,49.37
2023-02-23T23:10:19.617Z,49.48
2023-02-23T23:13:04.440Z,49.40
2023-02-23T23:15:50.383Z,49.04
2023-02-23T23:18:36.406Z,49.47
2023-02-23T23:21:21.584Z,49.54
2023-02-23T23:24:06.839Z,49.57
2023-02-23T23:26:51.499Z,49.20
2023-02-23T23:29:36.357Z,49.63
2023-02-23T23:32:21.187Z,49.83
2023-02-23T23:35:06.271Z,49.14
2023-02-23T23:37:51.144Z,49.47
2023-02-23T23:40:36.006Z,50.10
2023-02-23T23:43:20.839Z,50.03
2023-02-23T23:46:05.631Z,50.11
2023-02-23T23:48:50.454Z,50.81
2023-02-23T23:51:35.212Z,50.82
2023-02-23T23:54:20.134Z,50.68
2023-02-23T23:57:04.871Z,50.75
2023-02-23T23:59:50.779Z,50.33
